• Join FlightAware (Why Join?)
  • Login
  • US Flag 
10:42PM EDT


 

Airport Tracker/Info


-or-


 

Live Flight TrackerFlight Track Log ✈ N991BD ✈ 03-May-2013 ✈ KMGY - KFLD

Flight Track Log - Related Links

Times and Time Zones

All times are in EDT time to prevent confusion due to time zone crossing. See the N991BD flight status page for this flight to view local times or setup timezone preferences in your user account.

Time Position Orientation Groundspeed Altitude Reporting Facility
EDT Latitude Longitude Course Direction KTS MPH feet Rate Location/Type
03:55PM 39.5625 -84.2539 317° Northwest 112 129 2,200  Level Indianapolis Center
03:56PM 39.5950 -84.2933 317° Northwest 140 161 3,400 960 Climbing Indianapolis Center
03:57PM 39.6192 -84.3178 322° Northwest 138 159 4,100 840 Climbing Indianapolis Center
03:57PM 39.6258 -84.3272 313° West 147 169 4,300 840 Climbing Indianapolis Center
03:58PM 39.6500 -84.3531 321° Northwest 143 165 5,000 840 Climbing Indianapolis Center
03:58PM 39.6567 -84.3614 316° Northwest 149 171 5,200 960 Climbing Indianapolis Center
03:59PM 39.6800 -84.3903 316° Northwest 146 168 6,000 900 Climbing Indianapolis Center
04:00PM 39.7086 -84.4317 312° West 151 174 6,900 900 Climbing Indianapolis Center
04:01PM 39.7450 -84.4844 312° West 162 186 8,000 960 Climbing Indianapolis Center
04:02PM 39.7644 -84.5214 304° West 159 183 9,000 960 Climbing Indianapolis Center
04:03PM 39.7886 -84.5667 305° West 154 177 9,900 420 Climbing Indianapolis Center
04:04PM 39.8214 -84.6283 305° West 187 215 10,000  Climbing Indianapolis Center
04:05PM 39.8525 -84.6819 307° West 184 212 10,000  Level Indianapolis Center
04:06PM 39.8836 -84.7358 307° West 185 213 10,000  Level Indianapolis Center
04:07PM 39.9150 -84.7883 308° West 185 213 10,000  Level Indianapolis Center
04:08PM 39.9444 -84.8386 307° West 186 214 10,000 -60 Level Indianapolis Center
04:09PM 39.9925 -84.9239 306° West 185 213 9,900  Descending Chicago Center
04:10PM 40.0081 -84.9514 306° West 187 215 10,000 60 Climbing Indianapolis Center
04:11PM 40.0422 -85.0119 306° West 187 215 10,000  Level Indianapolis Center
04:12PM 40.0683 -85.0583 306° West 183 211 10,000  Level Indianapolis Center
04:13PM 40.1008 -85.1178 306° West 189 217 10,000  Level Indianapolis Center
04:14PM 40.1317 -85.1742 306° West 192 221 10,000 60 Level Indianapolis Center
04:15PM 40.1642 -85.2336 306° West 184 212 10,200  Climbing Indianapolis Center
04:16PM 40.2000 -85.2981 306° West 190 219 10,000 60 Descending Indianapolis Center
04:17PM 40.2289 -85.3508 306° West 182 209 10,400 420 Climbing Indianapolis Center
04:18PM 40.2567 -85.3981 308° West 170 196 10,900 480 Climbing Indianapolis Center
04:19PM 40.2681 -85.4161 310° West 170 196 11,200 540 Climbing Chicago Center
04:20PM 40.2992 -85.4703 307° West 160 184 11,800 480 Climbing Chicago Center
04:21PM 40.3261 -85.5156 308° West 158 182 12,200 180 Climbing Chicago Center
04:22PM 40.3608 -85.5608 315° West 173 199 12,200  Level Chicago Center
04:23PM 40.3989 -85.6114 315° West 192 221 12,200 -60 Level Chicago Center
04:24PM 40.4583 -85.6986 312° West 199 229 12,100  Descending Indianapolis Center
04:25PM 40.4814 -85.7292 315° West 202 232 12,200 60 Climbing Chicago Center
04:26PM 40.5200 -85.7833 313° West 204 235 12,200  Level Chicago Center
04:27PM 40.5589 -85.8367 314° West 204 235 12,200  Level Chicago Center
04:28PM 40.5969 -85.8928 312° West 206 237 12,200  Level Chicago Center
04:29PM 40.6322 -85.9497 309° West 203 234 12,200  Level Chicago Center
04:30PM 40.6675 -86.0067 309° West 202 232 12,200  Level Chicago Center
04:31PM 40.7050 -86.0736 306° West 204 235 12,200 -60 Level Chicago Center
04:32PM 40.7333 -86.1394 300° West 207 238 12,100 -60 Descending Chicago Center
04:33PM 40.7656 -86.2011 305° West 204 235 12,100  Level Chicago Center
04:34PM 40.7889 -86.2800 291° West 193 222 12,100  Level Chicago Center
04:35PM 40.8028 -86.3475 285° West 191 220 12,200  Climbing Chicago Center
04:36PM 40.8200 -86.4178 288° West 198 228 12,100 -60 Descending Chicago Center
04:37PM 40.8381 -86.4856 289° West 197 227 12,100  Level Chicago Center
04:38PM 40.8522 -86.5569 285° West 200 230 12,100  Level Chicago Center
04:39PM 40.8628 -86.6253 282° West 194 223 12,100  Level Chicago Center
04:40PM 40.8750 -86.7092 281° West 194 223 12,100 -60 Level Chicago Center
04:41PM 40.8858 -86.7781 282° West 192 221 12,000 -60 Descending Chicago Center
04:42PM 40.9050 -86.8400 292° West 186 214 12,000  Level Chicago Center
04:44PM 40.9208 -86.9072 287° West 190 219 12,100  Climbing Chicago Center
04:45PM 40.9375 -86.9719 289° West 189 217 12,100  Level Chicago Center
04:46PM 40.9569 -87.0508 288° West 189 217 12,100  Level Chicago Center
04:47PM 40.9739 -87.1161 289° West 188 216 12,100  Level Chicago Center
04:48PM 40.9917 -87.1833 289° West 192 221 12,200  Climbing Chicago Center
04:49PM 41.0089 -87.2483 289° West 189 217 12,200  Level Chicago Center
04:50PM 41.0256 -87.3161 288° West 193 222 12,200  Level Chicago Center
04:51PM 41.0469 -87.3958 290° West 192 221 12,200  Level Chicago Center
04:52PM 41.0647 -87.4636 289° West 194 223 12,200  Level Chicago Center
04:53PM 41.0814 -87.5317 288° West 196 226 12,200  Level Chicago Center
04:54PM 41.0986 -87.5994 289° West 193 222 12,200  Level Chicago Center
04:55PM 41.1158 -87.6675 289° West 196 226 12,200  Level Chicago Center
04:56PM 41.1339 -87.7361 289° West 197 227 12,200  Level Chicago Center
04:57PM 41.1544 -87.8194 288° West 198 228 12,200  Level Chicago Center
04:58PM 41.1714 -87.8889 288° West 198 228 12,200  Level Chicago Center
04:59PM 41.1903 -87.9589 290° West 200 230 12,200  Level Chicago Center
05:00PM 41.2072 -88.0294 288° West 200 230 12,200  Level Chicago Center
05:01PM 41.2253 -88.1000 289° West 201 231 12,200 -60 Level Chicago Center
05:02PM 41.2419 -88.1711 287° West 200 230 12,100 -60 Descending Chicago Center
05:03PM 41.2625 -88.2575 288° West 204 235 12,100  Level Chicago Center
05:04PM 41.2806 -88.3272 289° West 200 230 12,100  Level Chicago Center
05:05PM 41.2975 -88.3978 288° West 201 231 12,100  Level Chicago Center
05:06PM 41.3147 -88.4689 288° West 200 230 12,100  Level Chicago Center
05:07PM 41.3322 -88.5397 288° West 201 231 12,100  Level Chicago Center
05:08PM 41.3372 -88.6097 275° West 193 222 12,100  Level Chicago Center
05:09PM 41.3350 -88.6969 268° West 195 224 12,100 -60 Level Chicago Center
05:10PM 41.3367 -88.7700 272° West 197 227 12,000  Descending Chicago Center
05:11PM 41.3900 -88.8061 333° Northwest 211 243 12,100  Climbing Chicago Center
05:12PM 41.4461 -88.8269 344° North 209 241 12,100 -60 Level Chicago Center
05:14PM 41.5031 -88.8531 341° North 215 247 12,000  Descending Chicago Center
05:15PM 41.5600 -88.8828 339° North 219 252 12,100  Climbing Chicago Center
05:16PM 41.6278 -88.9131 342° North 215 247 12,100  Level Chicago Center
05:17PM 41.6844 -88.9372 342° North 215 247 12,100  Level Chicago Center
05:18PM 41.7417 -88.9311 North 207 238 12,100  Level Chicago Center
05:19PM 41.7958 -88.9103 16° North 202 232 12,100 -60 Level Chicago Center
05:20PM 41.8531 -88.9003 North 208 239 12,000  Descending Chicago Center
05:21PM 41.9092 -88.8911 North 204 235 12,100  Climbing Chicago Center
05:22PM 41.9767 -88.8764 North 204 235 12,100  Level Chicago Center
05:23PM 42.0342 -88.8647 North 207 238 12,100  Level Chicago Center
05:24PM 42.0881 -88.8528 North 206 237 12,100  Level Chicago Center
05:25PM 42.1453 -88.8389 10° North 208 239 12,100  Level Chicago Center
05:26PM 42.2042 -88.8286 North 206 237 12,100  Level Chicago Center
05:27PM 42.2606 -88.8181 North 206 237 12,100 -120 Level Chicago Center
05:28PM 42.3286 -88.8019 10° North 209 241 11,900 -300 Descending Chicago Center
05:29PM 42.3839 -88.7908 North 213 245 11,600 -300 Descending Chicago Center
05:30PM 42.4431 -88.7781 North 215 247 11,300 -420 Descending Chicago Center
05:31PM 42.5128 -88.7622 10° North 216 249 10,800 -540 Descending Chicago Center
05:32PM 42.5744 -88.7481 10° North 221 254 10,200 -660 Descending Chicago Center
05:33PM 42.6375 -88.7358 North 227 261 9,500 -540 Descending Chicago Center
05:34PM 42.7006 -88.7208 10° North 229 264 9,100 -480 Descending Chicago Center
05:35PM 42.7600 -88.7081 North 220 253 8,600 -540 Descending Chicago Center
05:36PM 42.8219 -88.6947 North 222 255 8,000 -300 Descending Chicago Center
05:37PM 42.8914 -88.6828 North 217 250 8,000  Level Chicago Center
05:38PM 42.9467 -88.6694 10° North 206 237 8,000  Level Chicago Center
05:39PM 43.0028 -88.6578 North 203 234 8,000  Level Chicago Center
05:40PM 43.0586 -88.6467 North 203 234 8,000  Level Chicago Center
05:41PM 43.1147 -88.6336 10° North 203 234 8,000  Level Chicago Center
05:42PM 43.1786 -88.6108 15° North 203 234 8,000 -60 Level Chicago Center
05:44PM 43.2306 -88.5864 19° North 200 230 7,900 -300 Descending Chicago Center
05:45PM 43.2875 -88.5683 13° North 204 235 7,500 -720 Descending Chicago Center
05:46PM 43.3475 -88.5467 15° North 213 245 6,500 -1,320 Descending Chicago Center
05:47PM 43.4117 -88.5219 16° North 226 260 4,800 -1,800 Descending Chicago Center
05:48PM 43.4792 -88.5003 13° North 232 267 2,900 -1,020 Descending Chicago Center
05:49PM 43.5314 -88.4864 11° North 204 235 2,700 -120 Descending Chicago Center
05:50PM 43.5794 -88.4872 359° North 181 208 2,700 -120 Level Chicago Center
05:51PM 43.6322 -88.4864 North 168 193 2,500 -60 Descending Chicago Center
05:52PM 43.6697 -88.4861 360° North 152 175 2,600 -180 Climbing Chicago Center
05:53PM 43.7036 -88.4864 360° North 134 154 2,200 -540 Descending Chicago Center
05:54PM 43.7342 -88.4856 North 118 136 1,600 -600 Descending Chicago Center
05:57PM 43.7667 -88.4833 North  Level FlightAware Approximate
06:04PM 43.7712 -88.4884 North  Level Estimated
06:05PM 43.7667 -88.4833 North  Level FlightAware Approximate